• Join FlightAware (Why Join?)
  • Login
  • US Flag 
02:48AM EDT


 

Airport Tracker/Info


-or-


 

Live Flight TrackerFlight Track Log ✈ SWA2322 ✈ 21-Apr-2013 ✈ KCHS - KBWI

Flight Track Log - Related Links

Times and Time Zones

All times are in EDT time to prevent confusion due to time zone crossing. See the SWA2322 flight status page for this flight to view local times or setup timezone preferences in your user account.

Time Position Orientation Groundspeed Altitude Reporting Facility
EDT Latitude Longitude Course Direction KTS MPH feet Rate Location/Type
07:58AM 32.9233 -80.0294 13° North 151 174 1,600  Level Jacksonville Center
07:59AM 32.9750 -80.0153 13° North 173 199 3,900 2,340 Climbing Jacksonville Center
08:00AM 33.0456 -79.9956 13° North 211 243 6,300 3,300 Climbing Jacksonville Center
08:01AM 33.1222 -79.9633 19° North 256 295 10,500 3,480 Climbing Jacksonville Center
08:02AM 33.2000 -79.9039 33° Northeast 295 339 13,300 3,000 Climbing Jacksonville Center
08:03AM 33.2839 -79.8389 33° Northeast 330 380 16,500 2,760 Climbing Jacksonville Center
08:04AM 33.3742 -79.7686 33° Northeast 363 418 18,900 2,580 Climbing Jacksonville Center
08:05AM 33.4703 -79.6956 32° Northeast 386 444 21,700 2,520 Climbing Jacksonville Center
08:06AM 33.5728 -79.6194 32° Northeast 407 468 24,000 2,160 Climbing Jacksonville Center
08:07AM 33.6750 -79.5383 33° Northeast 429 494 26,100 2,100 Climbing Jacksonville Center
08:08AM 33.7853 -79.4542 32° Northeast 443 510 28,200 1,800 Climbing Jacksonville Center
08:09AM 33.8794 -79.3806 33° Northeast 448 516 29,800 1,500 Climbing Jacksonville Center
08:10AM 33.9936 -79.2933 32° Northeast 466 536 31,300 1,680 Climbing Jacksonville Center
08:12AM 34.2436 -79.0964 33° Northeast 500 575 35,200 1,620 Climbing Washington Center
08:13AM 34.3717 -79.0011 32° Northeast 499 574 36,400 1,080 Climbing Washington Center
08:14AM 34.4911 -78.9056 33° Northeast 498 573 37,400 1,200 Climbing Washington Center
08:15AM 34.6106 -78.8069 34° Northeast 504 580 38,900 780 Climbing Washington Center
08:16AM 34.7297 -78.7156 32° Northeast 504 580 39,000  Climbing Washington Center
08:17AM 34.8428 -78.6261 33° Northeast 503 579 39,000  Level Washington Center
08:18AM 34.9694 -78.5650 22° Northeast 484 557 39,000  Level Washington Center
08:19AM 35.0939 -78.5061 21° North 484 557 39,000  Level Washington Center
08:20AM 35.2208 -78.4447 22° Northeast 484 557 39,000  Level Washington Center
08:21AM 35.3367 -78.3878 22° Northeast 478 550 39,000 -540 Level Washington Center
08:22AM 35.4633 -78.3258 22° Northeast 478 550 38,000 -960 Descending Washington Center
08:23AM 35.5942 -78.2664 20° North 483 556 37,100 -960 Descending Washington Center
08:24AM 35.7208 -78.2042 22° Northeast 483 556 36,100 -960 Descending Washington Center
08:25AM 35.8514 -78.1444 20° North 490 564 35,200 -960 Descending Washington Center
08:26AM 35.9758 -78.0842 21° North 490 564 34,200 -960 Descending Washington Center
08:27AM 36.1003 -78.0214 22° Northeast 485 558 33,300 -960 Descending Washington Center
08:28AM 36.2286 -77.9608 21° North 480 552 32,300 -1,320 Descending Washington Center
08:29AM 36.3550 -77.9003 21° North 480 552 30,700 -1,680 Descending Washington Center
08:30AM 36.4919 -77.8372 20° North 480 552 29,000 -960 Descending Washington Center
08:31AM 36.6242 -77.7892 16° North 480 552 28,800 -540 Descending Washington Center
08:32AM 36.7564 -77.7436 15° North 480 552 28,000 -420 Descending Washington Center
08:33AM 36.8867 -77.6953 17° North 480 552 28,000 -420 Level Washington Center
08:34AM 37.0167 -77.6469 17° North 480 552 27,200 -540 Descending Washington Center
08:35AM 37.1447 -77.6008 16° North 480 552 27,000 -120 Descending Washington Center
08:36AM 37.2750 -77.5519 17° North 480 552 27,000 -180 Level Washington Center
08:37AM 37.4031 -77.5056 16° North 480 552 26,700 -720 Descending Washington Center
08:38AM 37.5289 -77.4589 16° North 475 547 25,600 -1,800 Descending Washington Center
08:39AM 37.6547 -77.4122 16° North 475 547 23,100 -1,320 Descending Washington Center
08:40AM 37.7742 -77.3678 16° North 464 534 23,000 -60 Descending Washington Center
08:41AM 37.8958 -77.3206 17° North 458 527 23,000 -420 Level Washington Center
08:42AM 38.0133 -77.2758 17° North 448 516 22,200 -1,380 Descending Washington Center
08:43AM 38.1308 -77.2364 15° North 435 501 20,300 -2,040 Descending Washington Center
08:44AM 38.2397 -77.1964 16° North 422 486 18,200 -2,160 Descending Washington Center
08:45AM 38.3444 -77.1536 18° North 411 473 16,000 -1,860 Descending Washington Center
08:46AM 38.4247 -77.0839 34° Northeast 399 459 14,500 -1,920 Descending Washington Center
08:47AM 38.5008 -76.9925 43° Northeast 379 436 12,200 -1,800 Descending Washington Center
08:48AM 38.5747 -76.9061 42° Northeast 367 422 10,900 -1,080 Descending Washington Center
08:49AM 38.6422 -76.8222 44° Northeast 346 398 10,100 -960 Descending Washington Center
08:50AM 38.7036 -76.7461 44° Northeast 317 365 9,000 -1,080 Descending Washington Center
08:51AM 38.7419 -76.6564 61° Northeast 299 344 8,000 -1,260 Descending Washington Center
08:51AM 38.7667 -76.6167 51° Northeast 283 326 7,300 -1,500 Descending Potomac TRACON
08:52AM 38.8000 -76.5500 57° Northeast 277 319 6,100 -1,200 Descending Potomac TRACON
08:53AM 38.8667 -76.5167 21° North 244 281 5,100 -960 Descending Potomac TRACON
08:54AM 38.9333 -76.5000 11° North 230 265 4,200 -780 Descending Potomac TRACON
08:55AM 38.9833 -76.5167 345° North 203 234 3,700 -600 Descending Potomac TRACON
08:56AM 39.0333 -76.5333 345° North 183 211 3,000 -600 Descending Potomac TRACON
08:57AM 39.0667 -76.5667 322° Northwest 158 182 2,600 -660 Descending Potomac TRACON
08:58AM 39.1000 -76.6000 322° Northwest 159 183 1,800 -840 Descending Potomac TRACON
08:59AM 39.1333 -76.6333 322° Northwest 133 153 1,100 -780 Descending Potomac TRACON
09:01AM 39.1667 -76.6667 339° North  Level FlightAware Approximate
09:08AM 39.1754 -76.6683 339° North  Level Estimated
09:09AM 39.1754 -76.6683 339° North  Level Estimated
09:10AM 39.1754 -76.6683 339° North  Level Estimated
09:11AM 39.1754 -76.6683 339° North  Level Estimated
09:12AM 39.1754 -76.6683 339° North  Level Estimated